Time;durP1;ratioP1;P1;durP2;ratioP2;P2;SDS_P1;SDS_P2;PMS_P1;PMS_P2;Temp;Humidity;BMP_temperature;BMP_pressure;BME280_temperature;BME280_humidity;BME280_pressure;Samples;Min_cycle;Max_cycle;Signal;HPM_P1;HPM_P2
2022/03/22 00:00:55;;;;;;;;;;;9.70;57.80;;;;;;5049266;28;19929;-75
2022/03/22 00:03:24;;;;;;;;;;;9.60;57.60;;;;;;5045203;28;19925;-75
2022/03/22 00:05:52;;;;;;;;;;;9.60;57.70;;;;;;5046571;28;19964;-75
2022/03/22 00:08:19;;;;;;;;;;;9.60;57.80;;;;;;5046724;28;20288;-75
2022/03/22 00:10:46;;;;;;;;;;;9.50;58.20;;;;;;5047589;28;19933;-76
2022/03/22 00:13:12;;;;;;;;;;;9.50;58.30;;;;;;5038930;28;20318;-75
2022/03/22 00:15:39;;;;;;;;;;;9.50;58.60;;;;;;5041819;28;20309;-75
2022/03/22 00:18:06;;;;;;;;;;;9.40;58.50;;;;;;5045365;28;19929;-76
2022/03/22 00:20:32;;;;;;;;;;;9.40;58.90;;;;;;5042549;28;19929;-75
2022/03/22 00:23:00;;;;;;;;;;;9.30;58.90;;;;;;5051982;28;20021;-75
2022/03/22 00:25:27;;;;;;;;;;;9.30;59.00;;;;;;5051962;28;19932;-75
2022/03/22 00:27:55;;;;;;;;;;;9.30;59.10;;;;;;5046201;28;19932;-74
2022/03/22 00:30:22;;;;;;;;;;;9.20;59.10;;;;;;5047349;28;19959;-76
2022/03/22 00:32:53;;;;;;;;;;;9.20;59.20;;;;;;5050441;28;19935;-76
2022/03/22 00:35:21;;;;;;;;;;;9.20;59.30;;;;;;5043199;28;20388;-76
2022/03/22 00:37:49;;;;;;;;;;;9.20;59.40;;;;;;5045720;28;20420;-75
2022/03/22 00:40:18;;;;;;;;;;;9.10;59.30;;;;;;5046588;28;19940;-75
2022/03/22 00:42:46;;;;;;;;;;;9.10;59.30;;;;;;5049276;28;20007;-75
2022/03/22 00:45:13;;;;;;;;;;;9.10;59.10;;;;;;5052089;28;19925;-76
2022/03/22 00:47:39;;;;;;;;;;;9.00;59.20;;;;;;5047745;28;20000;-75
2022/03/22 00:50:06;;;;;;;;;;;9.00;59.50;;;;;;5050065;28;19994;-75
2022/03/22 00:52:34;;;;;;;;;;;8.90;59.30;;;;;;5046759;28;20308;-74
2022/03/22 00:55:01;;;;;;;;;;;8.90;59.30;;;;;;5045535;28;19979;-74
2022/03/22 00:57:29;;;;;;;;;;;8.80;59.30;;;;;;5047962;28;19928;-74
2022/03/22 01:00:08;;;;;;;;;;;8.80;59.40;;;;;;5048041;28;19933;-75
2022/03/22 01:02:35;;;;;;;;;;;8.80;59.30;;;;;;5047064;28;19928;-75
2022/03/22 01:05:03;;;;;;;;;;;8.70;59.50;;;;;;5043319;28;20436;-75
2022/03/22 01:07:30;;;;;;;;;;;8.70;59.60;;;;;;5042562;28;19928;-75
2022/03/22 01:09:56;;;;;;;;;;;8.70;59.60;;;;;;5045460;28;19960;-74
2022/03/22 01:12:23;;;;;;;;;;;8.60;59.50;;;;;;5046423;28;19932;-75
2022/03/22 01:14:52;;;;;;;;;;;8.60;59.70;;;;;;5042966;28;20463;-74
2022/03/22 01:17:19;;;;;;;;;;;8.60;59.60;;;;;;5045713;28;20377;-74
2022/03/22 01:19:46;;;;;;;;;;;8.50;59.70;;;;;;5041544;28;19929;-75
2022/03/22 01:22:15;;;;;;;;;;;8.50;59.80;;;;;;5046265;28;19933;-75
2022/03/22 01:24:42;;;;;;;;;;;8.40;59.80;;;;;;5045236;28;19928;-75
2022/03/22 01:27:08;;;;;;;;;;;8.40;59.90;;;;;;5044019;28;19933;-75
2022/03/22 01:29:35;;;;;;;;;;;8.40;60.00;;;;;;5045239;28;19928;-75
2022/03/22 01:32:04;;;;;;;;;;;8.40;60.10;;;;;;5046928;28;19935;-75
2022/03/22 01:34:30;;;;;;;;;;;8.30;60.10;;;;;;5045224;28;20419;-75
2022/03/22 01:36:57;;;;;;;;;;;8.30;60.30;;;;;;5045789;28;20384;-75
2022/03/22 01:39:24;;;;;;;;;;;8.30;60.20;;;;;;5049552;28;19933;-75
2022/03/22 01:41:50;;;;;;;;;;;8.20;60.40;;;;;;5041117;28;19971;-75
2022/03/22 01:44:17;;;;;;;;;;;8.20;60.20;;;;;;5044856;28;19928;-76
2022/03/22 01:46:45;;;;;;;;;;;8.20;60.40;;;;;;5048320;28;19933;-75
2022/03/22 01:49:12;;;;;;;;;;;8.10;60.30;;;;;;5050800;28;19929;-75
2022/03/22 01:51:41;;;;;;;;;;;8.10;60.30;;;;;;5048254;28;19932;-75
2022/03/22 01:54:07;;;;;;;;;;;8.00;60.30;;;;;;5045210;28;20039;-75
2022/03/22 01:56:36;;;;;;;;;;;8.00;60.20;;;;;;5046107;28;20392;-75
2022/03/22 01:59:02;;;;;;;;;;;8.00;60.40;;;;;;5044577;28;20370;-75
2022/03/22 02:07:01;;;;;;;;;;;7.80;60.30;;;;;;5050225;28;19936;-75
2022/03/22 02:09:29;;;;;;;;;;;7.80;60.30;;;;;;5046379;28;19935;-75
2022/03/22 02:11:55;;;;;;;;;;;7.80;60.40;;;;;;5051053;28;19925;-74
2022/03/22 02:14:22;;;;;;;;;;;7.80;60.60;;;;;;5039405;28;19999;-75
2022/03/22 02:16:49;;;;;;;;;;;7.70;60.60;;;;;;5048162;28;19932;-76
2022/03/22 02:19:16;;;;;;;;;;;7.70;60.50;;;;;;5044571;28;19941;-74
2022/03/22 02:21:43;;;;;;;;;;;7.70;60.50;;;;;;5046479;28;19976;-75
2022/03/22 02:24:11;;;;;;;;;;;7.60;60.60;;;;;;5043116;28;19930;-74
2022/03/22 02:26:38;;;;;;;;;;;7.60;60.50;;;;;;5046628;28;19929;-75
2022/03/22 02:29:05;;;;;;;;;;;7.60;60.80;;;;;;5045192;28;19928;-76
2022/03/22 02:31:32;;;;;;;;;;;7.50;61.10;;;;;;5044264;28;19928;-75
2022/03/22 02:33:59;;;;;;;;;;;7.50;61.30;;;;;;5042535;28;19933;-75
2022/03/22 02:36:26;;;;;;;;;;;7.50;61.30;;;;;;5044368;28;20028;-75
2022/03/22 02:38:53;;;;;;;;;;;7.50;61.50;;;;;;5049723;28;19929;-75
2022/03/22 02:41:21;;;;;;;;;;;7.40;61.50;;;;;;5044574;28;19948;-75
2022/03/22 02:43:49;;;;;;;;;;;7.40;62.00;;;;;;5046545;28;19928;-75
2022/03/22 02:46:15;;;;;;;;;;;7.40;61.80;;;;;;5046511;28;19972;-75
2022/03/22 02:48:42;;;;;;;;;;;7.30;61.90;;;;;;5047773;28;20336;-75
2022/03/22 02:51:09;;;;;;;;;;;7.30;62.00;;;;;;5041737;28;20291;-75
2022/03/22 02:53:36;;;;;;;;;;;7.30;62.00;;;;;;5043637;28;19935;-75
2022/03/22 02:56:02;;;;;;;;;;;7.30;62.10;;;;;;5044440;28;19929;-75
2022/03/22 02:58:30;;;;;;;;;;;7.20;62.00;;;;;;5046886;28;19937;-75
2022/03/22 03:00:57;;;;;;;;;;;7.20;61.70;;;;;;5042214;28;19925;-75
2022/03/22 03:03:23;;;;;;;;;;;7.20;61.50;;;;;;5045369;28;19933;-75
2022/03/22 03:05:50;;;;;;;;;;;7.10;60.70;;;;;;5045456;28;20706;-75
2022/03/22 03:08:17;;;;;;;;;;;7.10;61.30;;;;;;5049036;28;19967;-75
2022/03/22 03:10:44;;;;;;;;;;;7.10;61.60;;;;;;5047077;28;20431;-75
2022/03/22 03:13:11;;;;;;;;;;;7.00;61.40;;;;;;5043817;28;19933;-75
2022/03/22 03:15:39;;;;;;;;;;;7.00;61.50;;;;;;5043769;28;19936;-75
2022/03/22 03:18:06;;;;;;;;;;;7.00;61.60;;;;;;5048822;28;19928;-75
2022/03/22 03:20:33;;;;;;;;;;;6.90;61.70;;;;;;5046637;28;19932;-75
2022/03/22 03:22:59;;;;;;;;;;;6.90;61.60;;;;;;5047740;28;20674;-74
2022/03/22 03:25:26;;;;;;;;;;;6.90;61.20;;;;;;5046369;28;19929;-75
2022/03/22 03:27:52;;;;;;;;;;;6.80;61.70;;;;;;5049052;28;19928;-76
2022/03/22 03:30:19;;;;;;;;;;;6.80;61.80;;;;;;5047287;28;20411;-75
2022/03/22 03:32:47;;;;;;;;;;;6.80;61.80;;;;;;5048411;28;19936;-75
2022/03/22 03:35:14;;;;;;;;;;;6.70;61.50;;;;;;5045371;28;19928;-75
2022/03/22 03:37:42;;;;;;;;;;;6.70;62.20;;;;;;5048652;28;20304;-75
2022/03/22 03:40:10;;;;;;;;;;;6.70;62.30;;;;;;5046669;28;19972;-75
2022/03/22 03:42:41;;;;;;;;;;;6.70;62.30;;;;;;5045807;28;19929;-75
2022/03/22 03:47:55;;;;;;;;;;;6.60;63.10;;;;;;5048018;28;19932;-75
2022/03/22 03:50:22;;;;;;;;;;;6.60;62.40;;;;;;5048966;28;19933;-75
2022/03/22 03:52:48;;;;;;;;;;;6.60;62.40;;;;;;5046661;28;20004;-75
2022/03/22 03:55:15;;;;;;;;;;;6.60;62.70;;;;;;5045642;28;19933;-75
2022/03/22 03:57:42;;;;;;;;;;;6.50;62.70;;;;;;5047473;28;19936;-75
2022/03/22 04:00:09;;;;;;;;;;;6.50;62.90;;;;;;5047850;28;19928;-75
2022/03/22 04:02:35;;;;;;;;;;;6.40;62.90;;;;;;5050241;28;19931;-75
2022/03/22 04:05:03;;;;;;;;;;;6.40;62.90;;;;;;5048339;28;19928;-74
2022/03/22 04:07:30;;;;;;;;;;;6.40;62.80;;;;;;5048148;28;20583;-75
2022/03/22 04:09:56;;;;;;;;;;;6.40;63.00;;;;;;5049565;28;20297;-75
2022/03/22 04:12:23;;;;;;;;;;;6.30;63.10;;;;;;5052033;28;20417;-74
2022/03/22 04:14:50;;;;;;;;;;;6.30;62.40;;;;;;5041511;28;19936;-76
2022/03/22 04:17:17;;;;;;;;;;;6.30;63.00;;;;;;5047074;28;20397;-75
2022/03/22 04:19:45;;;;;;;;;;;6.30;63.00;;;;;;5049293;28;19936;-75
2022/03/22 04:22:12;;;;;;;;;;;6.30;62.90;;;;;;5049259;28;19929;-75
2022/03/22 04:24:39;;;;;;;;;;;6.20;62.50;;;;;;5047923;28;19929;-75
2022/03/22 04:32:43;;;;;;;;;;;6.10;63.30;;;;;;5049500;28;20475;-76
2022/03/22 04:35:10;;;;;;;;;;;6.10;63.30;;;;;;5042485;28;20381;-75
2022/03/22 04:37:38;;;;;;;;;;;6.10;63.40;;;;;;5047965;28;20468;-75
2022/03/22 04:40:06;;;;;;;;;;;6.10;63.50;;;;;;5054383;28;19928;-75
2022/03/22 04:42:32;;;;;;;;;;;6.00;63.60;;;;;;5047744;28;21941;-74
2022/03/22 04:44:59;;;;;;;;;;;6.00;63.10;;;;;;5052434;28;20031;-74
2022/03/22 04:47:26;;;;;;;;;;;6.00;63.70;;;;;;5045319;28;19937;-75
2022/03/22 04:49:53;;;;;;;;;;;5.90;63.80;;;;;;5047058;28;19928;-75
2022/03/22 04:57:49;;;;;;;;;;;5.90;63.70;;;;;;5046245;28;19981;-75
2022/03/22 05:00:16;;;;;;;;;;;5.80;63.80;;;;;;5045853;28;19933;-75
2022/03/22 05:02:42;;;;;;;;;;;5.80;63.60;;;;;;5046626;28;19936;-75
2022/03/22 05:05:09;;;;;;;;;;;5.80;62.90;;;;;;5046209;28;19939;-75
2022/03/22 05:07:35;;;;;;;;;;;5.80;63.50;;;;;;5044346;28;19936;-75
2022/03/22 05:10:02;;;;;;;;;;;5.70;63.50;;;;;;5049462;28;19936;-75
2022/03/22 05:12:30;;;;;;;;;;;5.70;63.60;;;;;;5047713;28;19933;-75
2022/03/22 05:14:57;;;;;;;;;;;5.70;63.10;;;;;;5048183;28;19928;-75
2022/03/22 05:17:24;;;;;;;;;;;5.70;63.70;;;;;;5048897;28;19928;-75
2022/03/22 05:19:51;;;;;;;;;;;5.70;64.10;;;;;;5046414;28;19929;-75
2022/03/22 05:22:18;;;;;;;;;;;5.60;63.80;;;;;;5049878;28;19936;-75
2022/03/22 05:24:45;;;;;;;;;;;5.60;63.30;;;;;;5046841;28;20428;-75
2022/03/22 05:27:12;;;;;;;;;;;5.60;63.90;;;;;;5044835;28;19929;-75
2022/03/22 05:29:40;;;;;;;;;;;5.50;63.80;;;;;;5045495;28;19982;-75
2022/03/22 05:32:06;;;;;;;;;;;5.50;63.70;;;;;;5046617;28;19970;-75
2022/03/22 05:34:33;;;;;;;;;;;5.50;64.00;;;;;;5045971;28;20501;-75
2022/03/22 05:37:00;;;;;;;;;;;5.50;64.10;;;;;;5047379;28;20432;-74
2022/03/22 05:39:26;;;;;;;;;;;5.40;64.20;;;;;;5049315;28;19936;-75
2022/03/22 05:41:53;;;;;;;;;;;5.40;64.20;;;;;;5044462;28;19935;-75
2022/03/22 05:44:20;;;;;;;;;;;5.40;64.40;;;;;;5044127;28;19933;-74
2022/03/22 05:46:49;;;;;;;;;;;5.40;64.50;;;;;;5042961;28;19936;-75
2022/03/22 05:49:15;;;;;;;;;;;6.60;65.50;;;;;;5049187;28;19928;-75
2022/03/22 05:51:42;;;;;;;;;;;5.30;64.90;;;;;;5047859;28;20400;-76
2022/03/22 05:54:08;;;;;;;;;;;5.30;64.80;;;;;;5051296;28;20407;-75
2022/03/22 05:56:35;;;;;;;;;;;5.30;64.00;;;;;;5046487;28;20011;-75
2022/03/22 05:59:02;;;;;;;;;;;5.30;64.70;;;;;;5046755;28;19929;-75
2022/03/22 06:01:29;;;;;;;;;;;5.20;64.90;;;;;;5047283;28;19968;-75
2022/03/22 06:03:57;;;;;;;;;;;5.30;65.00;;;;;;5043297;28;19929;-75
2022/03/22 06:06:23;;;;;;;;;;;5.20;64.50;;;;;;5044348;28;19928;-75
2022/03/22 06:08:50;;;;;;;;;;;5.10;64.30;;;;;;5044118;28;19932;-76
2022/03/22 06:11:18;;;;;;;;;;;5.20;65.00;;;;;;5047428;28;20638;-76
2022/03/22 06:13:44;;;;;;;;;;;5.00;77.10;;;;;;5049814;28;20028;-75
2022/03/22 06:16:11;;;;;;;;;;;5.00;71.90;;;;;;5043204;28;19967;-75
2022/03/22 06:18:38;;;;;;;;;;;4.80;73.20;;;;;;5050861;28;19970;-76
2022/03/22 06:21:06;;;;;;;;;;;4.80;76.40;;;;;;5045899;28;20025;-76
2022/03/22 06:23:32;;;;;;;;;;;4.90;76.30;;;;;;5044858;28;19933;-76
2022/03/22 06:26:01;;;;;;;;;;;4.70;77.70;;;;;;5047442;28;19932;-76
2022/03/22 06:28:27;;;;;;;;;;;5.00;78.20;;;;;;5043444;28;19928;-75
2022/03/22 06:30:54;;;;;;;;;;;4.70;78.00;;;;;;5044432;28;20978;-75
2022/03/22 06:33:22;;;;;;;;;;;4.80;77.20;;;;;;5043958;28;20311;-75
2022/03/22 06:35:49;;;;;;;;;;;4.60;78.60;;;;;;5044007;28;20415;-75
2022/03/22 06:38:17;;;;;;;;;;;5.00;78.30;;;;;;5038925;28;19936;-75
2022/03/22 06:40:44;;;;;;;;;;;4.70;77.80;;;;;;5044132;28;19989;-75
2022/03/22 06:43:11;;;;;;;;;;;5.40;78.10;;;;;;5050066;28;19953;-76
2022/03/22 06:45:38;;;;;;;;;;;4.70;78.80;;;;;;5046415;28;19969;-76
2022/03/22 06:48:06;;;;;;;;;;;4.60;77.80;;;;;;5046820;28;19950;-76
2022/03/22 06:50:33;;;;;;;;;;;4.90;76.80;;;;;;5044298;28;19947;-76
2022/03/22 06:53:00;;;;;;;;;;;4.80;78.20;;;;;;5049975;28;19954;-75
2022/03/22 06:55:28;;;;;;;;;;;4.80;79.40;;;;;;5047797;28;19955;-76
2022/03/22 06:57:55;;;;;;;;;;;4.60;79.30;;;;;;5045556;28;20042;-77
2022/03/22 07:00:21;;;;;;;;;;;4.60;78.10;;;;;;5043163;28;19991;-76
2022/03/22 07:02:49;;;;;;;;;;;5.50;79.10;;;;;;5049172;28;19966;-76
2022/03/22 07:05:16;;;;;;;;;;;4.60;75.50;;;;;;5046534;28;20456;-76
2022/03/22 07:07:43;;;;;;;;;;;4.50;74.60;;;;;;5045748;28;19943;-76
2022/03/22 07:10:10;;;;;;;;;;;4.50;74.20;;;;;;5046430;28;19991;-76
2022/03/22 07:12:48;;;;;;;;;;;4.60;74.00;;;;;;5050286;28;19939;-76
2022/03/22 07:15:14;;;;;;;;;;;4.60;74.60;;;;;;5049238;28;20017;-76
2022/03/22 07:17:41;;;;;;;;;;;4.50;75.30;;;;;;5050106;28;19933;-76
2022/03/22 07:20:08;;;;;;;;;;;4.50;74.60;;;;;;5045926;28;21490;-76
2022/03/22 07:22:35;;;;;;;;;;;4.60;72.50;;;;;;5050465;28;19929;-76
2022/03/22 07:25:01;;;;;;;;;;;4.60;73.80;;;;;;5050368;28;19935;-76
2022/03/22 07:27:28;;;;;;;;;;;4.50;73.80;;;;;;5050573;28;19933;-76
2022/03/22 07:29:56;;;;;;;;;;;4.60;73.10;;;;;;5049168;28;19936;-76
2022/03/22 07:32:23;;;;;;;;;;;4.60;73.50;;;;;;5047448;28;19929;-76
2022/03/22 07:34:50;;;;;;;;;;;5.00;74.20;;;;;;5050372;28;19936;-76
2022/03/22 07:37:17;;;;;;;;;;;4.50;73.30;;;;;;5048602;28;19940;-76
2022/03/22 07:39:43;;;;;;;;;;;4.50;73.10;;;;;;5051734;28;19971;-76
2022/03/22 07:42:10;;;;;;;;;;;4.40;73.50;;;;;;5053417;28;19928;-76
2022/03/22 07:44:38;;;;;;;;;;;4.70;71.50;;;;;;5050081;28;20316;-76
2022/03/22 07:47:06;;;;;;;;;;;4.30;69.80;;;;;;5051031;28;19929;-75
2022/03/22 07:55:01;;;;;;;;;;;4.70;73.00;;;;;;5047472;28;20251;-76
2022/03/22 07:57:27;;;;;;;;;;;4.60;71.90;;;;;;5046309;28;19924;-76
2022/03/22 07:59:54;;;;;;;;;;;4.60;72.40;;;;;;5048346;28;19933;-75
2022/03/22 08:02:22;;;;;;;;;;;4.50;72.10;;;;;;5047346;28;19940;-75
2022/03/22 08:04:49;;;;;;;;;;;4.70;72.20;;;;;;5044024;28;19959;-76
2022/03/22 08:07:16;;;;;;;;;;;4.70;71.80;;;;;;5045306;28;20381;-76
2022/03/22 08:09:45;;;;;;;;;;;4.80;70.70;;;;;;5048097;28;20431;-75
2022/03/22 08:12:12;;;;;;;;;;;4.80;68.90;;;;;;5048814;28;19939;-76
2022/03/22 08:14:38;;;;;;;;;;;4.80;71.70;;;;;;5043999;28;20462;-76
2022/03/22 08:17:05;;;;;;;;;;;4.60;71.10;;;;;;5048047;28;20016;-75
2022/03/22 08:19:33;;;;;;;;;;;5.00;70.10;;;;;;5044942;28;19932;-75
2022/03/22 08:22:00;;;;;;;;;;;4.80;70.10;;;;;;5049979;28;19935;-74
2022/03/22 08:24:26;;;;;;;;;;;4.90;70.80;;;;;;5046983;28;19936;-76
2022/03/22 08:26:53;;;;;;;;;;;4.80;71.60;;;;;;5038086;28;19928;-77
2022/03/22 08:29:19;;;;;;;;;;;5.20;70.10;;;;;;5041113;28;19943;-76
2022/03/22 08:31:46;;;;;;;;;;;5.00;71.40;;;;;;5042311;28;19936;-76
2022/03/22 08:34:13;;;;;;;;;;;5.10;72.30;;;;;;5044104;28;19950;-74
2022/03/22 08:36:40;;;;;;;;;;;4.90;73.10;;;;;;5043232;28;19929;-76
2022/03/22 08:39:08;;;;;;;;;;;6.20;71.10;;;;;;5042566;28;19933;-74
2022/03/22 08:41:35;;;;;;;;;;;5.10;70.40;;;;;;5045641;28;19968;-75
2022/03/22 08:44:02;;;;;;;;;;;5.10;71.00;;;;;;5042902;28;19933;-75
2022/03/22 08:46:29;;;;;;;;;;;5.30;73.90;;;;;;5042472;28;19932;-75
2022/03/22 08:48:56;;;;;;;;;;;5.30;71.80;;;;;;5046958;28;19940;-75
2022/03/22 08:51:24;;;;;;;;;;;5.40;72.20;;;;;;5044580;28;19984;-76
2022/03/22 08:53:54;;;;;;;;;;;5.20;71.50;;;;;;5046270;28;19936;-76
2022/03/22 08:56:22;;;;;;;;;;;5.50;64.00;;;;;;5049326;28;20035;-76
2022/03/22 08:58:50;;;;;;;;;;;5.30;64.30;;;;;;5058267;28;19992;-76
2022/03/22 09:01:17;;;;;;;;;;;5.30;64.00;;;;;;5049716;28;20389;-76
2022/03/22 09:06:07;;;;;;;;;;;5.60;64.00;;;;;;5043359;28;19936;-75
2022/03/22 09:06:29;;;;;;;;;;;5.80;63.10;;;;;;5047864;28;20385;-75
2022/03/22 09:08:57;;;;;;;;;;;5.80;63.70;;;;;;5050761;28;19974;-76
2022/03/22 09:11:23;;;;;;;;;;;5.90;63.20;;;;;;5044474;28;19944;-76
2022/03/22 09:13:50;;;;;;;;;;;6.00;63.40;;;;;;5042113;28;19936;-76
2022/03/22 09:16:16;;;;;;;;;;;6.00;62.40;;;;;;5048493;28;20336;-76
2022/03/22 09:18:44;;;;;;;;;;;6.00;62.20;;;;;;5047671;28;20007;-75
2022/03/22 09:21:11;;;;;;;;;;;6.10;62.00;;;;;;5043693;28;19928;-76
2022/03/22 09:23:40;;;;;;;;;;;6.20;62.70;;;;;;5043537;28;19972;-76
2022/03/22 09:26:08;;;;;;;;;;;6.30;61.70;;;;;;5045987;28;19929;-76
2022/03/22 09:28:35;;;;;;;;;;;6.30;62.20;;;;;;5044136;28;19928;-76
2022/03/22 09:31:02;;;;;;;;;;;6.30;62.10;;;;;;5048708;28;19937;-76
2022/03/22 09:33:30;;;;;;;;;;;6.40;61.80;;;;;;5044639;28;19933;-76
2022/03/22 09:35:57;;;;;;;;;;;6.50;60.90;;;;;;5044702;28;19975;-75
2022/03/22 09:38:24;;;;;;;;;;;6.50;61.30;;;;;;5051119;28;19935;-76
2022/03/22 09:40:50;;;;;;;;;;;6.60;61.30;;;;;;5046296;28;19937;-75
2022/03/22 09:43:19;;;;;;;;;;;6.70;61.20;;;;;;5043030;28;19928;-75
2022/03/22 09:45:46;;;;;;;;;;;6.70;60.30;;;;;;5040947;28;19936;-74
2022/03/22 09:48:12;;;;;;;;;;;6.80;61.10;;;;;;5045894;28;19933;-74
2022/03/22 09:53:23;;;;;;;;;;;6.90;61.00;;;;;;5045566;28;20443;-75
2022/03/22 09:55:49;;;;;;;;;;;7.10;60.00;;;;;;5050328;28;19928;-75
2022/03/22 09:58:16;;;;;;;;;;;7.20;60.50;;;;;;5046716;28;19929;-75
2022/03/22 10:00:44;;;;;;;;;;;7.20;60.40;;;;;;5041807;28;19937;-76
2022/03/22 10:03:17;;;;;;;;;;;7.30;60.20;;;;;;5041724;28;20423;-76
2022/03/22 10:05:45;;;;;;;;;;;7.40;59.20;;;;;;5038535;28;19929;-75
2022/03/22 10:08:12;;;;;;;;;;;7.50;59.70;;;;;;5044881;28;19975;-74
2022/03/22 10:10:52;;;;;;;;;;;7.50;59.50;;;;;;5042049;28;19929;-75
2022/03/22 10:13:19;;;;;;;;;;;9.80;60.80;;;;;;5050215;28;19939;-75
2022/03/22 10:15:47;;;;;;;;;;;7.70;58.90;;;;;;5037320;28;19947;-74
2022/03/22 10:18:14;;;;;;;;;;;7.70;59.50;;;;;;5042294;28;19937;-75
2022/03/22 10:20:41;;;;;;;;;;;7.80;59.40;;;;;;5044298;28;19975;-76
2022/03/22 10:23:10;;;;;;;;;;;7.90;59.60;;;;;;5042843;28;19933;-75
2022/03/22 10:25:38;;;;;;;;;;;7.90;58.70;;;;;;5043275;28;19929;-76
2022/03/22 10:28:06;;;;;;;;;;;8.00;59.30;;;;;;5047481;28;19932;-75
2022/03/22 10:30:34;;;;;;;;;;;8.10;59.20;;;;;;5041452;28;19939;-76
2022/03/22 10:33:02;;;;;;;;;;;8.10;59.00;;;;;;5043254;28;19928;-75
2022/03/22 10:35:29;;;;;;;;;;;8.30;58.60;;;;;;5039881;28;20332;-76
2022/03/22 10:37:57;;;;;;;;;;;8.20;59.10;;;;;;5043279;28;19929;-75
2022/03/22 10:40:25;;;;;;;;;;;8.30;59.10;;;;;;5040831;28;20046;-76
2022/03/22 10:42:53;;;;;;;;;;;8.40;59.00;;;;;;5038721;28;20408;-76
2022/03/22 10:45:19;;;;;;;;;;;8.50;58.30;;;;;;5042922;28;20400;-76
2022/03/22 10:47:47;;;;;;;;;;;8.50;58.90;;;;;;5041235;28;19932;-76
2022/03/22 10:50:14;;;;;;;;;;;8.50;58.60;;;;;;5042088;28;19928;-75
2022/03/22 10:52:48;;;;;;;;;;;8.70;58.40;;;;;;5046879;28;19955;-75
2022/03/22 10:55:19;;;;;;;;;;;8.80;57.30;;;;;;5042058;28;19928;-76
2022/03/22 10:57:47;;;;;;;;;;;8.80;57.90;;;;;;5049188;28;19929;-75
2022/03/22 11:00:14;;;;;;;;;;;8.90;57.90;;;;;;5041653;28;19941;-76
2022/03/22 11:02:42;;;;;;;;;;;9.00;57.40;;;;;;5041015;28;19937;-75
2022/03/22 11:05:09;;;;;;;;;;;9.10;57.20;;;;;;5038743;28;19935;-75
2022/03/22 11:07:38;;;;;;;;;;;9.10;57.50;;;;;;5041078;28;19945;-76
2022/03/22 11:10:05;;;;;;;;;;;9.20;57.50;;;;;;5052640;28;19928;-76
2022/03/22 11:12:33;;;;;;;;;;;9.30;57.50;;;;;;5041889;28;20773;-76
2022/03/22 11:15:00;;;;;;;;;;;9.40;56.60;;;;;;5044482;28;20430;-76
2022/03/22 11:17:28;;;;;;;;;;;9.40;57.00;;;;;;5037511;28;19932;-78
2022/03/22 11:19:55;;;;;;;;;;;9.50;56.80;;;;;;5047438;28;19936;-71
2022/03/22 11:22:23;;;;;;;;;;;9.60;56.70;;;;;;5044150;28;19933;-69
2022/03/22 11:24:52;;;;;;;;;;;9.70;55.50;;;;;;5043594;28;19929;-70
2022/03/22 11:27:28;;;;;;;;;;;9.70;56.00;;;;;;5048476;28;20052;-69
2022/03/22 11:29:55;;;;;;;;;;;9.80;56.20;;;;;;5040069;28;19933;-69
2022/03/22 11:35:12;;;;;;;;;;;10.00;55.00;;;;;;5037349;28;19990;-69
2022/03/22 11:37:40;;;;;;;;;;;10.00;55.50;;;;;;5053894;28;19933;-70
2022/03/22 11:43:00;;;;;;;;;;;10.20;55.40;;;;;;5045876;28;19935;-69
2022/03/22 11:45:27;;;;;;;;;;;10.30;54.40;;;;;;5046653;28;19986;-70
2022/03/22 11:47:54;;;;;;;;;;;10.40;54.50;;;;;;5047542;28;19936;-70
2022/03/22 11:50:22;;;;;;;;;;;10.50;54.40;;;;;;5047935;28;19940;-70
2022/03/22 11:52:55;;;;;;;;;;;10.50;54.60;;;;;;5049065;28;19936;-70
2022/03/22 11:55:24;;;;;;;;;;;10.60;54.40;;;;;;5049754;28;19933;-69
2022/03/22 11:57:51;;;;;;;;;;;10.70;54.90;;;;;;5050626;28;19936;-69
2022/03/22 12:00:19;;;;;;;;;;;10.80;54.80;;;;;;5049275;28;20039;-70
2022/03/22 12:02:47;;;;;;;;;;;10.80;54.60;;;;;;5048573;28;19929;-69
2022/03/22 12:05:15;;;;;;;;;;;10.90;54.10;;;;;;5046835;28;19994;-69
2022/03/22 12:07:41;;;;;;;;;;;10.90;55.10;;;;;;5056648;28;19928;-70
2022/03/22 12:10:11;;;;;;;;;;;11.00;54.50;;;;;;5053625;28;19936;-70
2022/03/22 12:12:39;;;;;;;;;;;11.10;54.40;;;;;;5042627;28;19933;-70
2022/03/22 12:15:07;;;;;;;;;;;11.20;53.80;;;;;;5045568;28;19928;-69
2022/03/22 12:17:33;;;;;;;;;;;11.20;54.20;;;;;;5045184;28;19929;-70
2022/03/22 12:20:01;;;;;;;;;;;11.30;54.10;;;;;;5038889;28;20220;-69
2022/03/22 12:22:28;;;;;;;;;;;11.30;54.00;;;;;;5045606;28;19940;-69
2022/03/22 12:24:57;;;;;;;;;;;11.40;53.70;;;;;;5049806;28;19932;-70
2022/03/22 12:27:24;;;;;;;;;;;11.40;53.40;;;;;;5046302;28;20134;-69
2022/03/22 12:29:53;;;;;;;;;;;11.50;53.50;;;;;;5049308;28;19933;-69
2022/03/22 12:32:21;;;;;;;;;;;11.60;52.80;;;;;;5046385;28;19935;-69
2022/03/22 12:34:48;;;;;;;;;;;11.60;52.70;;;;;;5043747;28;19968;-71
2022/03/22 12:37:15;;;;;;;;;;;11.60;53.00;;;;;;5044585;28;19933;-69
2022/03/22 12:39:44;;;;;;;;;;;11.70;53.00;;;;;;5043225;28;20348;-69
2022/03/22 12:42:11;;;;;;;;;;;11.80;52.70;;;;;;5046760;28;19928;-70
2022/03/22 12:44:38;;;;;;;;;;;13.70;53.60;;;;;;5047103;28;19936;-70
2022/03/22 12:47:06;;;;;;;;;;;11.90;52.90;;;;;;5047055;28;19939;-70
2022/03/22 12:49:34;;;;;;;;;;;12.00;52.80;;;;;;5044524;28;20389;-70
2022/03/22 12:52:01;;;;;;;;;;;12.00;52.70;;;;;;5046514;28;19961;-69
2022/03/22 12:54:31;;;;;;;;;;;12.10;52.40;;;;;;5055126;28;19994;-69
2022/03/22 12:57:00;;;;;;;;;;;12.10;52.30;;;;;;5044775;28;20324;-69
2022/03/22 12:59:27;;;;;;;;;;;12.20;52.40;;;;;;5049041;28;20439;-69
2022/03/22 13:01:57;;;;;;;;;;;12.30;52.40;;;;;;5042537;28;22387;-69
2022/03/22 13:04:28;;;;;;;;;;;12.30;52.20;;;;;;5045888;28;20010;-69
2022/03/22 13:06:59;;;;;;;;;;;12.40;51.90;;;;;;5050097;28;20750;-70
2022/03/22 13:12:10;;;;;;;;;;;12.50;51.60;;;;;;5037432;28;19932;-69
2022/03/22 13:17:22;;;;;;;;;;;12.60;51.70;;;;;;5047287;28;19969;-69
2022/03/22 13:19:50;;;;;;;;;;;12.70;51.70;;;;;;5043994;28;19929;-70
2022/03/22 13:22:18;;;;;;;;;;;12.70;51.50;;;;;;5044544;28;19939;-70
2022/03/22 13:24:44;;;;;;;;;;;12.80;50.10;;;;;;5050814;28;19987;-69
2022/03/22 13:27:13;;;;;;;;;;;12.80;50.50;;;;;;5045283;28;19929;-69
2022/03/22 13:29:41;;;;;;;;;;;12.90;51.00;;;;;;5050107;28;19964;-70
2022/03/22 13:32:08;;;;;;;;;;;13.10;51.00;;;;;;5044637;28;19951;-70
2022/03/22 13:34:37;;;;;;;;;;;13.10;50.20;;;;;;5041524;28;19929;-69
2022/03/22 13:37:08;;;;;;;;;;;13.10;50.70;;;;;;5045599;28;19951;-69
2022/03/22 13:39:35;;;;;;;;;;;13.10;50.60;;;;;;5049331;28;19933;-70
2022/03/22 13:42:07;;;;;;;;;;;13.20;50.00;;;;;;5052725;28;19935;-70
2022/03/22 13:44:34;;;;;;;;;;;13.30;49.90;;;;;;5049774;28;19964;-70
2022/03/22 13:47:01;;;;;;;;;;;13.20;50.30;;;;;;5047893;28;19977;-70
2022/03/22 13:49:34;;;;;;;;;;;13.30;49.90;;;;;;5051374;28;19936;-69
2022/03/22 13:52:01;;;;;;;;;;;13.40;50.30;;;;;;5055583;28;20017;-69
2022/03/22 13:54:29;;;;;;;;;;;13.50;49.70;;;;;;5054293;28;20023;-70
2022/03/22 13:57:04;;;;;;;;;;;13.50;50.20;;;;;;5048968;28;21912;-70
2022/03/22 13:59:38;;;;;;;;;;;13.60;50.00;;;;;;5052548;28;19933;-70
2022/03/22 14:02:05;;;;;;;;;;;13.60;49.90;;;;;;5047622;28;19932;-70
2022/03/22 14:04:34;;;;;;;;;;;13.80;49.20;;;;;;5049507;28;19932;-70
2022/03/22 14:07:01;;;;;;;;;;;13.70;49.60;;;;;;5045151;28;19936;-70
2022/03/22 14:09:27;;;;;;;;;;;13.80;49.40;;;;;;5047536;28;20380;-69
2022/03/22 14:11:55;;;;;;;;;;;13.90;49.20;;;;;;5040863;28;20565;-70
2022/03/22 14:14:22;;;;;;;;;;;14.00;48.50;;;;;;5046398;28;19928;-70
2022/03/22 14:16:48;;;;;;;;;;;14.00;49.10;;;;;;5042839;28;20335;-71
2022/03/22 14:19:15;;;;;;;;;;;14.10;48.90;;;;;;5041978;28;19943;-70
2022/03/22 14:21:42;;;;;;;;;;;14.20;48.60;;;;;;5044763;28;19935;-70
2022/03/22 14:24:09;;;;;;;;;;;14.20;48.10;;;;;;5045554;28;20646;-71
2022/03/22 14:26:35;;;;;;;;;;;14.30;46.90;;;;;;5054582;28;19944;-70
2022/03/22 14:29:03;;;;;;;;;;;14.30;48.00;;;;;;5047700;28;19929;-70
2022/03/22 14:31:30;;;;;;;;;;;14.40;47.90;;;;;;5051037;28;19964;-70
2022/03/22 14:33:56;;;;;;;;;;;14.40;47.80;;;;;;5050910;28;19936;-68
2022/03/22 14:36:22;;;;;;;;;;;14.50;47.40;;;;;;5055973;28;19928;-68
2022/03/22 14:38:50;;;;;;;;;;;14.60;47.80;;;;;;5044788;28;19932;-69
2022/03/22 14:41:26;;;;;;;;;;;14.60;46.60;;;;;;5044907;28;19929;-68
2022/03/22 14:43:53;;;;;;;;;;;14.70;47.50;;;;;;5044355;28;19928;-69
2022/03/22 14:46:21;;;;;;;;;;;14.70;47.10;;;;;;5045223;28;19928;-67
2022/03/22 14:48:49;;;;;;;;;;;14.80;47.40;;;;;;5044359;28;19963;-69
2022/03/22 14:51:16;;;;;;;;;;;14.90;47.40;;;;;;5045726;28;20024;-68
2022/03/22 14:59:11;;;;;;;;;;;15.10;46.90;;;;;;5048769;28;19935;-69
2022/03/22 15:01:39;;;;;;;;;;;15.10;46.80;;;;;;5039586;28;19939;-69
2022/03/22 15:04:06;;;;;;;;;;;15.20;46.80;;;;;;5047248;28;19929;-68
2022/03/22 15:06:32;;;;;;;;;;;15.30;46.00;;;;;;5048194;28;19940;-68
2022/03/22 15:08:59;;;;;;;;;;;15.30;46.40;;;;;;5048826;28;19933;-68
2022/03/22 15:11:26;;;;;;;;;;;15.30;46.50;;;;;;5047887;28;19939;-68